createdAt,value
2019-02-20T00:00:45.904Z,20.00
2019-02-20T00:05:49.616Z,22.03
2019-02-20T00:10:53.314Z,22.23
2019-02-20T00:15:57.444Z,18.37
2019-02-20T00:21:01.129Z,19.97
2019-02-20T00:26:04.917Z,17.87
2019-02-20T00:31:08.667Z,18.33
2019-02-20T00:36:12.714Z,17.60
2019-02-20T00:41:16.459Z,20.80
2019-02-20T00:46:30.114Z,23.27
2019-02-20T00:51:40.287Z,21.83
2019-02-20T00:56:44.238Z,23.93
2019-02-20T01:01:48.233Z,19.10
2019-02-20T01:06:51.955Z,18.47
2019-02-20T01:11:55.882Z,19.77
2019-02-20T01:16:59.568Z,25.10
2019-02-20T01:22:03.358Z,25.80
2019-02-20T01:27:07.042Z,23.50
2019-02-20T01:32:10.740Z,24.10
2019-02-20T01:37:14.434Z,22.47
2019-02-20T01:42:18.925Z,27.30
2019-02-20T01:47:22.687Z,21.47
2019-02-20T01:52:26.437Z,28.23
2019-02-20T01:57:30.241Z,21.13
2019-02-20T02:02:33.935Z,22.30
2019-02-20T02:07:38.064Z,25.63
2019-02-20T02:12:41.774Z,25.40
2019-02-20T02:17:45.871Z,24.07
2019-02-20T02:22:49.632Z,24.87
2019-02-20T02:27:53.317Z,28.67
2019-02-20T02:32:57.450Z,28.27
2019-02-20T02:38:01.216Z,26.57
2019-02-20T02:43:05.337Z,26.27
2019-02-20T02:48:09.115Z,23.53
2019-02-20T02:53:12.814Z,25.43
2019-02-20T02:58:16.861Z,23.83
2019-02-20T03:03:20.564Z,25.47
2019-02-20T03:08:24.609Z,28.17
2019-02-20T03:13:28.715Z,23.00
2019-02-20T03:18:32.445Z,26.07
2019-02-20T03:23:40.285Z,24.07
2019-02-20T03:28:41.932Z,25.27
2019-02-20T03:33:45.691Z,29.97
2019-02-20T03:38:49.974Z,30.37
2019-02-20T03:43:53.704Z,29.07
2019-02-20T03:48:57.446Z,29.43
2019-02-20T03:54:01.246Z,24.67
2019-02-20T03:59:04.954Z,25.90
2019-02-20T04:04:08.645Z,27.70
2019-02-20T04:09:12.315Z,30.33
2019-02-20T04:14:16.278Z,30.50
2019-02-20T04:19:20.058Z,28.07
2019-02-20T04:24:24.099Z,28.53
2019-02-20T04:29:28.061Z,23.53
2019-02-20T04:34:32.064Z,28.57
2019-02-20T04:39:36.119Z,25.37
2019-02-20T04:44:40.124Z,28.13
2019-02-20T04:49:43.824Z,28.87
2019-02-20T04:54:47.692Z,27.90
2019-02-20T04:59:51.742Z,26.93
2019-02-20T05:04:55.488Z,22.97
2019-02-20T05:09:59.495Z,29.07
2019-02-20T05:15:03.252Z,30.40
2019-02-20T05:20:07.386Z,30.00
2019-02-20T05:25:11.115Z,27.13
2019-02-20T05:30:14.900Z,27.47
2019-02-20T05:35:18.581Z,33.30
2019-02-20T05:40:22.535Z,25.67
2019-02-20T05:45:26.234Z,26.50
2019-02-20T05:50:30.187Z,29.63
2019-02-20T05:55:33.881Z,30.97
2019-02-20T06:00:37.630Z,32.70
2019-02-20T06:05:41.355Z,30.20
2019-02-20T06:10:45.128Z,28.00
2019-02-20T06:15:48.822Z,25.77
2019-02-20T06:20:52.507Z,28.80
2019-02-20T06:25:56.344Z,32.97
2019-02-20T06:31:00.028Z,31.17
2019-02-20T06:36:03.924Z,26.87
2019-02-20T06:41:07.621Z,31.87
2019-02-20T06:46:11.303Z,31.03
2019-02-20T06:51:15.024Z,25.90
2019-02-20T06:56:18.690Z,33.10
2019-02-20T07:01:22.382Z,32.43
2019-02-20T07:06:46.408Z,29.77
2019-02-20T07:12:13.233Z,29.60
2019-02-20T07:17:35.717Z,28.10
2019-02-20T07:23:06.070Z,30.73
2019-02-20T07:28:52.632Z,29.47
2019-02-20T07:33:56.300Z,25.73
2019-02-20T07:39:00.016Z,27.50
2019-02-20T07:44:03.765Z,29.47
2019-02-20T07:49:07.450Z,26.80
2019-02-20T07:54:11.177Z,33.17
2019-02-20T07:59:15.150Z,26.17
2019-02-20T08:04:18.819Z,27.50
2019-02-20T08:09:22.806Z,29.47
2019-02-20T08:14:26.492Z,24.77
2019-02-20T08:19:30.196Z,24.80
2019-02-20T08:24:33.899Z,29.77
2019-02-20T08:29:37.633Z,25.73
2019-02-20T08:34:41.361Z,25.47
2019-02-20T08:39:45.064Z,29.43
2019-02-20T08:44:48.828Z,26.57
2019-02-20T08:49:54.362Z,26.83
2019-02-20T08:54:58.036Z,28.40
2019-02-20T09:00:02.085Z,26.23
2019-02-20T09:05:06.741Z,31.63
2019-02-20T09:10:11.043Z,29.47
2019-02-20T09:15:14.826Z,31.70
2019-02-20T09:20:19.135Z,23.93
2019-02-20T09:25:23.260Z,27.30
2019-02-20T09:30:28.852Z,25.70
2019-02-20T09:35:32.894Z,25.07
2019-02-20T09:40:36.826Z,25.37
2019-02-20T09:45:42.905Z,26.73
2019-02-20T09:50:47.733Z,23.10
2019-02-20T09:55:52.057Z,29.67
2019-02-20T10:00:56.217Z,25.10
2019-02-20T10:05:59.917Z,27.20
2019-02-20T10:11:03.649Z,25.37
2019-02-20T10:16:07.656Z,23.90
2019-02-20T10:21:11.398Z,23.33
2019-02-20T10:26:15.117Z,27.20
2019-02-20T10:31:18.841Z,25.00
2019-02-20T10:36:22.560Z,29.67
2019-02-20T10:41:26.380Z,21.53
2019-02-20T10:46:30.114Z,28.60
2019-02-20T10:51:33.956Z,20.57
2019-02-20T10:56:37.807Z,22.70
2019-02-20T11:01:41.795Z,22.10
2019-02-20T11:06:45.581Z,24.02
2019-02-20T11:11:49.335Z,24.82
2019-02-20T11:16:53.097Z,19.98
2019-02-20T11:21:56.822Z,23.20
2019-02-20T11:27:00.587Z,24.70
2019-02-20T11:32:04.320Z,22.03
2019-02-20T11:37:08.054Z,21.63
2019-02-20T11:42:11.775Z,21.70
2019-02-20T11:47:15.594Z,21.77
2019-02-20T11:52:19.302Z,20.57
2019-02-20T11:57:23.324Z,18.93
2019-02-20T12:02:27.140Z,18.00
2019-02-20T12:07:31.501Z,16.67
2019-02-20T12:12:35.611Z,20.47
2019-02-20T12:17:39.363Z,17.13
2019-02-20T12:22:43.077Z,19.50
2019-02-20T12:27:47.155Z,12.30
2019-02-20T12:32:51.297Z,14.17
2019-02-20T12:37:55.088Z,13.37
2019-02-20T12:42:59.293Z,14.33
2019-02-20T12:48:03.061Z,16.37
2019-02-20T12:53:06.833Z,14.00
2019-02-20T12:58:10.639Z,12.60
2019-02-20T13:03:14.402Z,14.03
2019-02-20T13:08:18.260Z,14.07
2019-02-20T13:13:22.275Z,11.40
2019-02-20T13:18:26.388Z,13.33
2019-02-20T13:23:30.182Z,13.83
2019-02-20T13:28:33.979Z,14.03
2019-02-20T13:33:38.253Z,12.17
2019-02-20T13:38:41.959Z,11.10
2019-02-20T13:43:46.248Z,11.30
2019-02-20T13:48:50.276Z,10.30
2019-02-20T13:53:54.060Z,15.13
2019-02-20T13:58:57.867Z,12.67
2019-02-20T14:04:01.583Z,14.53
2019-02-20T14:09:06.605Z,13.20
2019-02-20T14:14:10.757Z,13.87
2019-02-20T14:19:14.579Z,16.87
2019-02-20T14:24:18.351Z,17.80
2019-02-20T14:29:22.107Z,20.00
2019-02-20T14:34:26.779Z,13.17
2019-02-20T14:39:30.570Z,13.90
2019-02-20T14:44:34.611Z,14.70
2019-02-20T14:49:38.310Z,12.83
2019-02-20T14:54:42.689Z,11.47
2019-02-20T14:59:46.776Z,16.83
2019-02-20T15:04:50.611Z,16.10
2019-02-20T15:09:54.433Z,13.73
2019-02-20T15:14:58.195Z,12.00
2019-02-20T15:20:02.028Z,13.90
2019-02-20T15:25:05.962Z,14.43
2019-02-20T15:30:12.430Z,13.27
2019-02-20T15:35:17.748Z,12.80
2019-02-20T15:40:21.470Z,13.07
2019-02-20T15:45:25.833Z,15.10
2019-02-20T15:50:30.539Z,15.27
2019-02-20T15:55:34.300Z,14.13
2019-02-20T16:00:38.015Z,14.27
2019-02-20T16:05:44.138Z,14.80
2019-02-20T16:10:47.891Z,14.83
2019-02-20T16:15:52.599Z,15.53
2019-02-20T16:20:56.573Z,23.23
2019-02-20T16:26:02.203Z,14.57
2019-02-20T16:31:08.197Z,14.57
2019-02-20T16:36:14.688Z,21.43
2019-02-20T16:41:19.125Z,13.60
2019-02-20T16:46:22.819Z,16.00
2019-02-20T16:51:26.584Z,16.97
2019-02-20T16:56:34.546Z,22.13
2019-02-20T17:01:38.350Z,15.83
2019-02-20T17:06:42.670Z,17.00
2019-02-20T17:11:46.459Z,11.87
2019-02-20T17:16:50.512Z,12.43
2019-02-20T17:21:54.221Z,16.67
2019-02-20T17:26:57.983Z,12.63
2019-02-20T17:32:01.919Z,19.43
2019-02-20T17:37:05.666Z,15.57
2019-02-20T17:42:09.659Z,16.13
2019-02-20T17:47:13.589Z,19.53
2019-02-20T17:52:17.645Z,17.10
2019-02-20T17:57:21.644Z,17.10
2019-02-20T18:02:26.258Z,16.47
2019-02-20T18:07:29.953Z,18.60
2019-02-20T18:12:33.637Z,17.33
2019-02-20T18:17:37.653Z,15.70
2019-02-20T18:22:43.613Z,14.63
2019-02-20T18:27:47.041Z,13.33
2019-02-20T18:32:51.580Z,23.30
2019-02-20T18:37:55.414Z,21.93
2019-02-20T18:42:59.547Z,24.43
2019-02-20T18:48:03.309Z,19.17
2019-02-20T18:53:07.129Z,25.77
2019-02-20T18:58:10.829Z,24.97
2019-02-20T19:03:14.520Z,26.70
2019-02-20T19:08:50.871Z,26.43
2019-02-20T19:14:02.732Z,33.93
2019-02-20T19:19:48.337Z,29.47
2019-02-20T19:25:46.056Z,29.97
2019-02-20T19:31:46.692Z,32.67
2019-02-20T19:37:23.832Z,35.60
2019-02-20T19:42:39.407Z,29.17
2019-02-20T19:48:16.047Z,32.27
2019-02-20T19:53:49.279Z,32.60
2019-02-20T19:59:29.675Z,23.73
2019-02-20T20:05:16.519Z,32.63
2019-02-20T20:10:41.756Z,31.87
2019-02-20T20:16:17.590Z,28.37
2019-02-20T20:21:50.134Z,28.73
2019-02-20T20:27:20.011Z,64.57
2019-02-20T20:32:52.627Z,27.23
2019-02-20T20:38:31.928Z,24.10
2019-02-20T20:44:10.871Z,30.57
2019-02-20T20:49:34.548Z,29.40
2019-02-20T20:55:26.800Z,28.63
2019-02-20T21:01:04.794Z,28.77
2019-02-20T21:06:34.257Z,28.70
2019-02-20T21:11:55.152Z,23.77
2019-02-20T21:17:40.189Z,24.10
2019-02-20T21:23:25.705Z,26.90
2019-02-20T21:28:48.796Z,30.23
2019-02-20T21:34:24.510Z,27.60
2019-02-20T21:39:46.613Z,25.73
2019-02-20T21:45:09.588Z,24.03
2019-02-20T21:50:40.880Z,25.33
2019-02-20T21:56:18.213Z,25.77
2019-02-20T22:01:34.912Z,23.90
2019-02-20T22:06:58.705Z,30.10
2019-02-20T22:12:36.688Z,34.87
2019-02-20T22:18:13.810Z,27.33
2019-02-20T22:23:54.936Z,24.93
2019-02-20T22:29:27.039Z,24.47
2019-02-20T22:34:55.804Z,25.53
2019-02-20T22:40:23.165Z,28.10
2019-02-20T22:45:35.536Z,29.40
2019-02-20T22:50:57.910Z,26.40
2019-02-20T22:56:30.799Z,24.60
2019-02-20T23:02:28.886Z,34.93
2019-02-20T23:07:58.587Z,32.13
2019-02-20T23:13:42.227Z,26.53
2019-02-20T23:18:45.941Z,24.53
2019-02-20T23:23:49.925Z,22.30
2019-02-20T23:28:53.644Z,30.87
2019-02-20T23:33:57.710Z,26.03
2019-02-20T23:39:01.455Z,27.03
2019-02-20T23:44:05.168Z,25.67
2019-02-20T23:49:08.879Z,40.63
2019-02-20T23:54:12.771Z,21.73
2019-02-20T23:59:17.348Z,26.53
